Schedule Details


Flight Number: CTN369
Departure: Alexander The Great (LWSK) at 16:00
Arrival: Franjo Tudman (LDZA) at 17:15
Route: GOSTI P92 MAVAR UY400 RETRA UL604 BOSNA UL608 KOMAR L187 TEBLI

Weather Information
LWSK 112130Z 12004KT 9999 SCT085 18/11 Q1012 NOSIG
LDZA 112130Z 23005KT CAVOK 19/12 Q1007 BECMG 24008KT
Schedule Frequency

Route Map